• Join FlightAware (Why Join?)
  • Login
  • US Flag 
04:57AM EDT


 

Airport Tracker/Info


-or-


 

Live Flight TrackerFlight Track Log ✈ SWA3987 ✈ 03-May-2012 ✈ KAUS - KHRL

Flight Track Log - Related Links

Times and Time Zones

All times are in EDT time to prevent confusion due to time zone crossing. See the SWA3987 flight status page for this flight to view local times or setup timezone preferences in your user account.

Time Position Orientation Groundspeed Altitude Reporting Facility
EDT Latitude Longitude Course Direction KTS MPH feet Rate Location/Type
12:57PM 30.2876 -97.5791 231° Southwest  Level FlightAware Approximate
12:58PM 30.1164 -97.8256 240° Southwest 273 314 7,000  Level Houston Center
12:59PM 30.0794 -97.9000 233° Southwest 289 333 10,000 2,520 Climbing Houston Center
01:00PM 30.0189 -97.9922 228° Southwest 325 374 12,100 2,400 Climbing Houston Center
01:01PM 29.9592 -98.0678 227° Southwest 349 402 14,800 2,640 Climbing Houston Center
01:02PM 29.8881 -98.1567 228° Southwest 349 402 17,400 2,280 Climbing Houston Center
01:03PM 29.8258 -98.2364 227° Southwest 360 414 19,400 1,920 Climbing Houston Center
01:04PM 29.7483 -98.3319 222° Southwest 373 429 21,300 1,740 Climbing Houston Center
01:05PM 29.6778 -98.4061 167° South 385 443 22,900 1,980 Climbing Houston Center
01:06PM 29.5583 -98.3744 153° Southeast 367 422 25,300 1,680 Climbing Houston Center
01:07PM 29.4631 -98.3183 158° South 395 455 26,300 1,380 Climbing Houston Center
01:08PM 29.3406 -98.2628 165° South 426 490 28,100 1,680 Climbing Houston Center
01:09PM 29.2358 -98.2300 164° South 432 497 29,700 1,920 Climbing Houston Center
01:10PM 29.1106 -98.1889 163° South 432 497 32,000 1,920 Climbing Houston Center
01:11PM 29.0119 -98.1544 164° South 420 483 33,600 1,380 Climbing Houston Center
01:12PM 28.8950 -98.1164 164° South 404 465 34,800 960 Climbing Houston Center
01:13PM 28.7961 -98.0844 164° South 410 472 35,600 840 Climbing Houston Center
01:14PM 28.6853 -98.0492 165° South 410 472 36,500 660 Climbing Houston Center
01:15PM 28.5742 -98.0142 164° South 415 478 37,000 240 Climbing Houston Center
01:16PM 28.4633 -97.9769 164° South 415 478 37,000  Level Houston Center
01:17PM 28.3522 -97.9397 165° South 415 478 37,000  Level Houston Center
01:18PM 28.2411 -97.9050 161° South 415 478 37,000  Level Houston Center
01:19PM 28.1261 -97.8606 165° South 420 483 37,000 -120 Level Houston Center
01:20PM 28.0047 -97.8231 165° South 425 489 36,800 -1,500 Descending Houston Center
01:21PM 27.8917 -97.7883 163° South 425 489 34,100 -2,940 Descending Houston Center
01:22PM 27.7744 -97.7489 165° South 431 496 31,000 -3,000 Descending Houston Center
01:23PM 27.6589 -97.7144 164° South 431 496 28,200 -2,640 Descending Houston Center
01:24PM 27.5478 -97.6778 166° South 431 496 25,800 -2,400 Descending Houston Center
01:25PM 27.4386 -97.6461 164° South 424 488 23,400 -2,400 Descending Houston Center
01:26PM 27.3358 -97.6125 179° South 404 465 21,100 -2,340 Descending Houston Center
01:28PM 27.1250 -97.6103 184° South 380 437 16,400 -2,040 Descending Houston Center
01:29PM 27.0686 -97.6144 182° South 373 429 16,000 -1,020 Descending Houston Center
01:30PM 26.9431 -97.6192 185° South 331 381 14,600 -2,220 Descending Houston Center
01:31PM 26.8489 -97.6283 183° South 383 441 11,100 -2,400 Descending Houston Center
01:32PM 26.7483 -97.6344 183° South 349 402 10,100 -960 Descending Houston Center
01:33PM 26.6625 -97.6392 181° South 313 360 9,000 -1,560 Descending Houston Center
01:34PM 26.5769 -97.6417 184° South 291 335 6,700 -2,220 Descending Houston Center
01:35PM 26.5119 -97.6472 182° South 277 319 5,000 -1,980 Descending Houston Center
01:36PM 26.4428 -97.6506 184° South 272 313 3,300 -1,500 Descending Houston Center
01:37PM 26.3656 -97.6558 183° South 258 297 2,000 -900 Descending Houston Center
01:38PM 26.3047 -97.6594 184° South 187 215 1,400 -720 Descending Houston Center
01:39PM 26.2672 -97.6622 180° South 148 170 600 -600 Descending Houston Center
01:40PM 26.2233 -97.6622 180° South 148 170 200 -360 Descending Houston Center